6792000 - Cedar River near Fullerton

Latitude:
41.39463º N
Longitude:
98.00358º W
Type:
Stream
River Basin:
Loup
Source:
NeDNR

Info! The graphs are now plotted with new date ranges.
Warning! If you see this please check date range (or) the data is not available.

 to 


—— Provisional Data Subject to Revision ——

Instantaneous Discharge

6792000 - Cedar River near Fullerton
- Ice Possible      - Equipment Malfunction
- Seasonal      -Rating in Development
- Measured



Instantaneous Stage

6792000 - Cedar River near Fullerton
- Ice Possible      - Equipment Malfunction
- Seasonal      -Rating in Development
- Measured



 to 


—— Provisional Data Subject to Revision ——

Daily Discharge

6792000 - Cedar River near Fullerton
- Approved      - Provisional


Export
Date Time Discharge (cfs) Stage (feet) Shift (feet)
08/27/2019 10:30 916 3.44 0.80
07/30/2019 11:30 272 1.89 1.23
07/03/2019 10:15 371 2.26 1.09
06/05/2019 12:15 778 3.30 0.75
05/07/2019 15:00 468 2.32 1.23
04/08/2019 11:00 510 2.32 1.31
03/26/2019 13:30 968 2.73 1.58
03/15/2019 10:30 3,810 7.40 -0.82
02/13/2019 11:30 291 3.94 -0.77
01/15/2019 9:15 382 3.23 0.15
12/19/2018 10:45 329 3.31 -0.05
11/19/2018 12:33 316 3.29 -0.06
10/17/2018 10:15 533 3.52 0.15
09/27/2018 10:34 299 3.35 -0.16
08/28/2018 13:00 465 3.76 -0.22
07/31/2018 13:15 305 3.28 -0.08
06/27/2018 14:00 382 3.56 -0.18
06/07/2018 15:45 3,710 6.73 -0.20
06/07/2018 13:45 3,570 6.53 -0.09
06/06/2018 16:35 253 3.27 -0.20
05/08/2018 17:22 294 3.36 -0.19
04/11/2018 16:09 254 3.24 -0.17
03/14/2018 15:14 359 3.44 -0.12
02/14/2018 9:30 233 4.47 -1.46
01/17/2018 12:30 189 3.96 -1.08
12/18/2017 12:57 246 3.21 -0.16
11/20/2017 11:08 253 3.18 -0.11
10/25/2017 10:53 269 3.16 -0.05
09/26/2017 11:26 278 3.24 -0.11
08/29/2017 11:08 180 3.01 -0.16
07/31/2017 13:45 189 3.00 -0.12
06/29/2017 14:52 160 2.93 -0.14
06/08/2017 11:43 254 3.24 -0.17
05/09/2017 14:17 471 3.96 -0.41
04/11/2017 11:42 262 3.28 -0.19
03/13/2017 11:09 232 3.21 -0.20
02/13/2017 9:47 302 3.26 -0.07
01/12/2017 10:45 202 4.03 -1.11
12/20/2016 9:50 201 4.05 -1.13
11/21/2016 13:13 240 3.18 -0.15
10/24/2016 13:08 214 3.14 -0.18
09/29/2016 11:47 202 3.05 -0.13
08/30/2016 13:21 144 2.93 -0.20
08/04/2016 9:09 407 3.80 -0.37
07/07/2016 12:43 265 3.26 -0.16
06/08/2016 10:55 285 3.32 -0.17
05/05/2016 14:15 966 4.14 0.16
04/21/2016 14:10 740 3.79 0.21
04/13/2016 8:58 265 3.22 -0.12
03/14/2016 11:40 259 3.22 -0.13
02/16/2016 11:15 303 3.32 -0.12
01/20/2016 13:25 240 3.62 -0.59
01/05/2016 14:21 250 3.55 -0.49
12/21/2015 9:37 231 3.30 -0.29
11/23/2015 10:57 284 3.38 -0.23
10/27/2015 11:48 179 2.99 -0.14
09/30/2015 10:48 211 3.14 -0.19
09/24/2015 15:15 737 3.96 0.03
09/10/2015 10:45 479 3.95 -0.38
09/03/2015 10:53 149 2.88 -0.13
08/05/2015 11:12 198 3.11 -0.20
06/30/2015 10:34 186 3.08 -0.21
06/03/2015 12:22 262 3.32 -0.22
05/19/2015 11:49 245 3.26 -0.21
04/13/2015 11:51 271 3.29 -0.17
03/18/2015 12:12 240 3.23 -0.20
02/09/2015 11:09 363 3.33 0.00
02/05/2015 10:15 205 4.27 -1.34
12/23/2014 9:45 270 3.31 -0.20
11/24/2014 8:45 258 3.52 -0.44
10/28/2014 12:39 185 3.09 -0.22
10/02/2014 11:55 231 3.23 -0.22
09/10/2014 11:04 219 3.14 -0.17
08/07/2014 14:53 145 2.92 -0.19
07/09/2014 11:02 224 3.18 -0.19
06/04/2014 15:15 1,280 4.50 0.17
06/04/2014 11:30 1,620 4.84 0.17
05/13/2014 12:02 255 3.19 -0.11
04/16/2014 10:27 259 3.25 -0.16
03/11/2014 10:46 281 3.15 -0.01
02/18/2014 10:30 280 4.46 -1.32
01/22/2014 12:30 137 3.78 -1.08
12/17/2013 13:30 214 3.75 -0.79
11/25/2013 11:30 222 3.18 -0.20
10/30/2013 11:45 238 3.03 0.00
10/03/2013 14:45 2,950 6.22 -0.17
10/03/2013 10:15 2,990 5.88 0.82
09/10/2013 12:09 124 2.74 0.53
08/08/2013 16:22 196 3.00 0.52
07/10/2013 12:28 159 2.91 0.49
06/12/2013 14:40 237 3.14 0.49
05/30/2013 13:30 1,250 4.45 0.77
05/14/2013 10:43 254 3.26 0.42
04/16/2013 10:45 334 3.37 0.50
03/18/2013 12:04 211 3.00 0.56
02/12/2013 10:15 201 2.99 0.54
01/23/2013 10:45 182 3.69 -0.21
12/28/2012 9:30 194 3.78 -0.27
11/26/2012 10:34 207 3.00 0.55
10/31/2012 14:03 224 3.04 0.56
10/03/2012 9:54 150 2.75 0.62
09/06/2012 10:21 97.8 2.51 0.65
08/09/2012 16:13 66.7 2.37 0.63
07/11/2012 14:10 110 2.61 0.60
06/12/2012 10:58 192 2.95 0.56
05/16/2012 13:17 287 3.23 0.53
04/17/2012 11:58 446 3.45 0.64
03/20/2012 11:57 318 3.23 0.60
02/27/2012 10:40 336 3.23 0.64
02/02/2012 10:30 315 3.19 0.64
01/24/2012 14:00 354 3.52 0.39
12/19/2011 10:15 332 4.16 -0.29
11/28/2011 13:54 285 3.11 0.65
11/03/2011 12:26 279 3.20 0.54
10/06/2011 10:22 222 3.00 0.60
09/09/2011 10:52 199 2.96 0.57
08/17/2011 14:10 343 3.43 0.46
07/19/2011 13:28 417 3.53 0.51
06/14/2011 12:21 313 3.17 0.66
05/26/2011 11:00 978 4.11 0.76
04/21/2011 11:30 577 3.53 0.78
03/22/2011 11:45 384 3.39 0.58
02/23/2011 10:30 365 3.11 0.83
01/24/2011 10:00 244 4.11 -0.46
12/27/2010 10:15 251 3.76 -0.09
12/01/2010 12:05 209 2.85 0.71
11/02/2010 11:47 333 3.19 0.68
10/06/2010 12:08 237 2.88 0.76
09/14/2010 14:06 228 2.86 0.75
08/12/2010 10:48 202 2.63 0.91
07/13/2010 13:17 680 3.80 0.66
06/15/2010 9:45 6,170 9.30 -1.01
06/14/2010 10:45 4,360 7.63 -0.15
05/18/2010 12:26 285 3.29 0.47
04/22/2010 11:08 295 3.24 0.54
03/22/2010 10:58 431 3.38 0.69
03/10/2010 11:15 1,620 4.91 0.73
02/24/2010 11:54 287 4.66 -0.90
02/02/2010 13:01 320 4.64 -0.80
01/05/2010 11:30 239 4.50 -0.86
12/01/2009 9:18 295 3.38 0.41
11/05/2009 11:24 455 3.65 0.46
10/14/2009 12:44 291 3.38 0.40
10/07/2009 11:52 269 3.33 0.39
09/17/2009 10:23 183 3.12 0.37
08/11/2009 11:14 240 3.18 0.47
07/16/2009 15:06 240 3.28 0.37
06/18/2009 11:45 442 3.79 0.29
05/26/2009 11:45 1,270 4.50 0.75
05/22/2009 11:57 211 3.13 0.44
04/28/2009 12:27 258 3.31 0.39
04/02/2009 14:20 319 3.40 0.44
02/17/2009 10:40 378 3.37 0.59
02/10/2009 9:36 929 5.35 -0.55
01/29/2009 9:20 213 4.32 -0.75
01/06/2009 12:00 227 4.07 -0.46
12/02/2008 11:09 288 3.40 0.36
11/05/2008 9:18 304 3.40 0.40
10/14/2008 10:30 243 3.33 0.32
09/11/2008 13:06 220 3.14 0.45
08/13/2008 12:53 239 3.09 0.55
07/16/2008 10:18 272 3.11 0.62
06/12/2008 14:21 526 3.81 0.42
05/22/2008 15:22 329 3.68 0.18
04/22/2008 10:20 287 3.43 0.34
03/27/2008 9:46 251 3.33 0.35
03/04/2008 11:16 300 3.39 0.41
02/06/2008 14:35 270 4.28 -0.56
01/07/2008 11:40 295 4.06 -0.28
12/04/2007 13:48 257 3.51 0.18
11/13/2007 10:52 253 3.31 0.37
10/09/2007 10:25 260 3.40 0.30
09/12/2007 11:47 297 3.34 0.45
08/14/2007 11:14 332 3.50 0.37
07/17/2007 13:41 171 2.82 0.62
06/19/2007 11:58 506 3.86 0.34
05/30/2007 12:00 4,780 8.21 -0.52
05/22/2007 13:19 242 3.27 0.39
05/03/2007 11:05 482 3.95 0.21
03/28/2007 11:05 401 3.80 0.21
03/05/2007 9:55 250 3.17 0.50
02/22/2007 10:15 1,200 4.97 0.19
02/01/2007 10:15 113 3.87 -0.64
01/09/2007 10:55 236 3.42 0.21
12/14/2006 9:49 245 3.56 0.10
11/16/2006 7:40 159 3.23 0.17
11/06/2006 12:04 191 3.38 0.12
10/11/2006 10:46 205 3.38 0.17
09/12/2006 11:25 383 3.72 0.25
08/15/2006 12:31 184 3.29 0.19
08/02/2006 14:05 477 4.25 -0.10
07/18/2006 12:13 113 3.03 0.20
06/20/2006 12:58 231 3.46 0.16
05/24/2006 12:44 198 3.36 0.17
05/02/2006 13:08 266 3.55 0.16
03/30/2006 12:06 309 3.71 0.11
03/07/2006 11:19 271 3.52 0.21
01/30/2006 12:56 230 3.43 0.19
01/05/2006 12:10 269 3.72 0.00
12/16/2005 12:20 233 4.24 -0.61
11/07/2005 13:16 205 3.34 0.21
10/13/2005 14:37 197 1.30 0.22
09/14/2005 15:45 143 1.15 0.19
08/16/2005 13:54 174 1.22 0.23
07/21/2005 15:50 122 0.97 0.29
06/21/2005 16:00 1,380 3.08 0.29
05/26/2005 12:35 388 1.76 0.22
04/28/2005 12:45 313 1.80 0.02
03/28/2005 14:40 266 1.68 0.03
03/03/2005 15:40 236 1.44 0.19
02/14/2005 12:45 349 1.66 0.24
02/04/2005 12:50 298 2.41 -0.62
01/10/2005 13:50 247 2.62 -0.96
12/09/2004 12:25 224 1.43 0.17
11/16/2004 13:20 217 1.36 0.22
10/14/2004 13:50 219 1.30 0.29
09/14/2004 13:40 140 0.84 0.49
08/20/2004 10:45 111 0.69 0.53
07/21/2004 9:40 130 0.75 0.55
07/09/2004 11:30 2,770 4.80 -0.24
06/22/2004 12:30 560 2.28 0.01
06/17/2004 12:10 1,010 2.72 0.19
06/16/2004 18:00 4,580 6.58 -0.99
06/16/2004 13:20 3,820 5.65 -0.45
Export



Download Rating Curve
  
1.51     0.00
1.52     0.00
1.53     0.02
1.54     0.04
1.55     0.07
1.56     0.11
1.57     0.16
1.58     0.22
1.59     0.30
1.60     0.39
1.61     0.49
1.62     0.61
1.63     0.74
1.64     0.88
1.65     1.04
1.66     1.22
1.67     1.41
1.68     1.61
1.69     1.83
1.70     2.07
1.71     2.33
1.72     2.60
1.73     2.89
1.74     3.19
1.75     3.52
1.76     3.86
1.77     4.22
1.78     4.59
1.79     4.99
1.80     5.40
1.81     5.83
1.82     6.29
1.83     6.76
1.84     7.25
1.85     7.76
1.86     8.29
1.87     8.84
1.88     9.41
1.89     9.99
1.90     10.60
1.91     11.23
1.92     11.89
1.93     12.56
1.94     13.25
1.95     13.96
1.96     14.70
1.97     15.45
1.98     16.23
1.99     17.03
2.00     17.85
2.01     18.70
2.02     19.56
2.03     20.45
2.04     21.36
2.05     22.29
2.06     23.25
2.07     24.22
2.08     25.22
2.09     26.25
2.10     27.29
2.11     28.36
2.12     29.46
2.13     30.57
2.14     31.71
2.15     32.88
2.16     34.06
2.17     35.28
2.18     36.51
2.19     37.77
2.20     39.05
2.21     40.36
2.22     41.69
2.23     43.05
2.24     44.43
2.25     45.84
2.26     47.27
2.27     48.72
2.28     50.20
2.29     51.71
2.30     53.24
2.31     54.80
2.32     56.38
2.33     57.98
2.34     59.62
2.35     61.28
2.36     62.96
2.37     64.67
2.38     66.41
2.39     68.17
2.40     69.96
2.41     71.77
2.42     73.61
2.43     75.48
2.44     77.37
2.45     79.29
2.46     81.24
2.47     83.21
2.48     85.21
2.49     87.24
2.50     89.29
Download Rating Curve